sensor_id;sensor_type;location;lat;lon;timestamp;P1;durP1;ratioP1;P2;durP2;ratioP2
71759;SDS011;59919;48.112;16.280;2023-04-28T00:00:25;3.25;;;2.60;;
71759;SDS011;59919;48.112;16.280;2023-04-28T00:02:59;5.57;;;3.20;;
71759;SDS011;59919;48.112;16.280;2023-04-28T00:05:35;5.25;;;3.00;;
71759;SDS011;59919;48.112;16.280;2023-04-28T00:08:07;3.97;;;3.47;;
71759;SDS011;59919;48.112;16.280;2023-04-28T00:10:40;4.30;;;3.10;;
71759;SDS011;59919;48.112;16.280;2023-04-28T00:13:11;3.92;;;3.00;;
71759;SDS011;59919;48.112;16.280;2023-04-28T00:15:42;5.43;;;2.85;;
71759;SDS011;59919;48.112;16.280;2023-04-28T00:18:21;4.20;;;2.97;;
71759;SDS011;59919;48.112;16.280;2023-04-28T00:20:57;2.97;;;2.72;;
71759;SDS011;59919;48.112;16.280;2023-04-28T00:23:29;3.03;;;2.72;;
71759;SDS011;59919;48.112;16.280;2023-04-28T00:26:00;3.70;;;2.90;;
71759;SDS011;59919;48.112;16.280;2023-04-28T00:28:31;4.95;;;3.35;;
71759;SDS011;59919;48.112;16.280;2023-04-28T00:31:10;4.22;;;2.88;;
71759;SDS011;59919;48.112;16.280;2023-04-28T00:33:42;6.18;;;3.00;;
71759;SDS011;59919;48.112;16.280;2023-04-28T00:36:15;3.88;;;2.92;;
71759;SDS011;59919;48.112;16.280;2023-04-28T00:38:46;3.55;;;3.08;;
71759;SDS011;59919;48.112;16.280;2023-04-28T00:41:17;3.22;;;2.50;;
71759;SDS011;59919;48.112;16.280;2023-04-28T00:43:54;3.40;;;2.92;;
71759;SDS011;59919;48.112;16.280;2023-04-28T00:46:31;3.92;;;3.30;;
71759;SDS011;59919;48.112;16.280;2023-04-28T00:49:11;4.07;;;3.20;;
71759;SDS011;59919;48.112;16.280;2023-04-28T00:51:48;3.67;;;2.65;;
71759;SDS011;59919;48.112;16.280;2023-04-28T00:54:24;3.13;;;2.83;;
71759;SDS011;59919;48.112;16.280;2023-04-28T00:56:58;4.45;;;3.10;;
71759;SDS011;59919;48.112;16.280;2023-04-28T00:59:29;4.22;;;2.80;;
71759;SDS011;59919;48.112;16.280;2023-04-28T01:02:02;3.33;;;2.67;;
71759;SDS011;59919;48.112;16.280;2023-04-28T01:04:38;5.38;;;3.65;;
71759;SDS011;59919;48.112;16.280;2023-04-28T01:07:09;4.28;;;3.20;;
71759;SDS011;59919;48.112;16.280;2023-04-28T01:09:44;7.95;;;3.70;;
71759;SDS011;59919;48.112;16.280;2023-04-28T01:12:17;3.60;;;2.90;;
71759;SDS011;59919;48.112;16.280;2023-04-28T01:14:48;4.20;;;2.67;;
71759;SDS011;59919;48.112;16.280;2023-04-28T01:17:22;3.22;;;2.85;;
71759;SDS011;59919;48.112;16.280;2023-04-28T01:19:58;4.43;;;2.92;;
71759;SDS011;59919;48.112;16.280;2023-04-28T01:22:29;3.85;;;3.28;;
71759;SDS011;59919;48.112;16.280;2023-04-28T01:25:01;3.30;;;3.00;;
71759;SDS011;59919;48.112;16.280;2023-04-28T01:27:33;4.45;;;3.00;;
71759;SDS011;59919;48.112;16.280;2023-04-28T01:30:09;3.80;;;2.88;;
71759;SDS011;59919;48.112;16.280;2023-04-28T01:32:45;4.10;;;3.00;;
71759;SDS011;59919;48.112;16.280;2023-04-28T01:35:16;3.70;;;3.22;;
71759;SDS011;59919;48.112;16.280;2023-04-28T01:37:48;3.10;;;2.80;;
71759;SDS011;59919;48.112;16.280;2023-04-28T01:40:22;3.55;;;3.25;;
71759;SDS011;59919;48.112;16.280;2023-04-28T01:42:56;3.53;;;3.22;;
71759;SDS011;59919;48.112;16.280;2023-04-28T01:45:27;3.20;;;2.88;;
71759;SDS011;59919;48.112;16.280;2023-04-28T01:48:00;3.45;;;2.90;;
71759;SDS011;59919;48.112;16.280;2023-04-28T01:50:31;3.80;;;3.15;;
71759;SDS011;59919;48.112;16.280;2023-04-28T01:53:05;3.45;;;2.90;;
71759;SDS011;59919;48.112;16.280;2023-04-28T01:55:41;3.60;;;3.13;;
71759;SDS011;59919;48.112;16.280;2023-04-28T01:58:17;3.63;;;3.22;;
71759;SDS011;59919;48.112;16.280;2023-04-28T02:00:48;4.22;;;2.72;;
71759;SDS011;59919;48.112;16.280;2023-04-28T02:03:22;4.22;;;3.47;;
71759;SDS011;59919;48.112;16.280;2023-04-28T02:05:53;3.42;;;2.70;;
71759;SDS011;59919;48.112;16.280;2023-04-28T02:08:24;2.90;;;2.60;;
71759;SDS011;59919;48.112;16.280;2023-04-28T02:10:56;4.28;;;3.13;;
71759;SDS011;59919;48.112;16.280;2023-04-28T02:13:27;4.28;;;3.00;;
71759;SDS011;59919;48.112;16.280;2023-04-28T02:16:01;4.20;;;3.53;;
71759;SDS011;59919;48.112;16.280;2023-04-28T02:18:32;3.70;;;3.28;;
71759;SDS011;59919;48.112;16.280;2023-04-28T02:21:09;4.47;;;2.95;;
71759;SDS011;59919;48.112;16.280;2023-04-28T02:23:43;3.55;;;3.25;;
71759;SDS011;59919;48.112;16.280;2023-04-28T02:26:14;3.65;;;2.67;;
71759;SDS011;59919;48.112;16.280;2023-04-28T02:28:50;3.83;;;3.40;;
71759;SDS011;59919;48.112;16.280;2023-04-28T02:31:24;3.60;;;2.85;;
71759;SDS011;59919;48.112;16.280;2023-04-28T02:34:01;5.20;;;3.70;;
71759;SDS011;59919;48.112;16.280;2023-04-28T02:36:32;4.45;;;3.20;;
71759;SDS011;59919;48.112;16.280;2023-04-28T02:39:03;3.88;;;3.00;;
71759;SDS011;59919;48.112;16.280;2023-04-28T02:41:34;4.25;;;2.85;;
71759;SDS011;59919;48.112;16.280;2023-04-28T02:44:07;3.50;;;2.95;;
71759;SDS011;59919;48.112;16.280;2023-04-28T02:46:39;4.93;;;2.83;;
71759;SDS011;59919;48.112;16.280;2023-04-28T02:49:10;3.40;;;3.10;;
71759;SDS011;59919;48.112;16.280;2023-04-28T02:51:42;3.10;;;2.70;;
71759;SDS011;59919;48.112;16.280;2023-04-28T02:54:15;4.03;;;2.63;;
71759;SDS011;59919;48.112;16.280;2023-04-28T02:56:59;3.22;;;2.92;;
71759;SDS011;59919;48.112;16.280;2023-04-28T02:59:33;3.80;;;3.00;;
71759;SDS011;59919;48.112;16.280;2023-04-28T03:02:05;3.88;;;2.90;;
71759;SDS011;59919;48.112;16.280;2023-04-28T03:04:39;3.25;;;2.90;;
71759;SDS011;59919;48.112;16.280;2023-04-28T03:07:13;3.10;;;2.85;;
71759;SDS011;59919;48.112;16.280;2023-04-28T03:09:45;4.88;;;3.08;;
71759;SDS011;59919;48.112;16.280;2023-04-28T03:12:22;4.15;;;3.45;;
71759;SDS011;59919;48.112;16.280;2023-04-28T03:14:55;3.78;;;3.20;;
71759;SDS011;59919;48.112;16.280;2023-04-28T03:17:29;4.40;;;3.17;;
71759;SDS011;59919;48.112;16.280;2023-04-28T03:20:01;3.67;;;3.38;;
71759;SDS011;59919;48.112;16.280;2023-04-28T03:22:33;4.00;;;3.00;;
71759;SDS011;59919;48.112;16.280;2023-04-28T03:25:08;3.78;;;3.17;;
71759;SDS011;59919;48.112;16.280;2023-04-28T03:27:42;3.38;;;3.08;;
71759;SDS011;59919;48.112;16.280;2023-04-28T03:30:15;3.15;;;2.67;;
71759;SDS011;59919;48.112;16.280;2023-04-28T03:32:49;3.15;;;2.70;;
71759;SDS011;59919;48.112;16.280;2023-04-28T03:35:20;4.00;;;2.90;;
71759;SDS011;59919;48.112;16.280;2023-04-28T03:37:59;2.90;;;2.67;;
71759;SDS011;59919;48.112;16.280;2023-04-28T03:40:31;3.22;;;2.75;;
71759;SDS011;59919;48.112;16.280;2023-04-28T03:43:06;6.70;;;3.25;;
71759;SDS011;59919;48.112;16.280;2023-04-28T03:45:43;5.35;;;3.10;;
71759;SDS011;59919;48.112;16.280;2023-04-28T03:48:14;4.85;;;3.17;;
71759;SDS011;59919;48.112;16.280;2023-04-28T03:50:45;3.97;;;3.20;;
71759;SDS011;59919;48.112;16.280;2023-04-28T03:53:21;4.45;;;2.97;;
71759;SDS011;59919;48.112;16.280;2023-04-28T03:55:52;3.25;;;2.70;;
71759;SDS011;59919;48.112;16.280;2023-04-28T03:58:23;3.45;;;2.95;;
71759;SDS011;59919;48.112;16.280;2023-04-28T04:01:00;4.05;;;2.90;;
71759;SDS011;59919;48.112;16.280;2023-04-28T04:03:31;5.20;;;3.05;;
71759;SDS011;59919;48.112;16.280;2023-04-28T04:06:05;3.88;;;3.13;;
71759;SDS011;59919;48.112;16.280;2023-04-28T04:08:41;4.10;;;2.83;;
71759;SDS011;59919;48.112;16.280;2023-04-28T04:11:13;3.78;;;3.00;;
71759;SDS011;59919;48.112;16.280;2023-04-28T04:13:46;3.20;;;2.90;;
71759;SDS011;59919;48.112;16.280;2023-04-28T04:16:17;4.38;;;3.42;;
71759;SDS011;59919;48.112;16.280;2023-04-28T04:18:49;3.85;;;3.00;;
71759;SDS011;59919;48.112;16.280;2023-04-28T04:21:22;4.32;;;2.72;;
71759;SDS011;59919;48.112;16.280;2023-04-28T04:23:54;3.78;;;3.10;;
71759;SDS011;59919;48.112;16.280;2023-04-28T04:26:29;3.15;;;2.80;;
71759;SDS011;59919;48.112;16.280;2023-04-28T04:29:00;3.55;;;3.15;;
71759;SDS011;59919;48.112;16.280;2023-04-28T04:31:32;3.58;;;2.95;;
71759;SDS011;59919;48.112;16.280;2023-04-28T04:34:05;3.65;;;2.97;;
71759;SDS011;59919;48.112;16.280;2023-04-28T04:36:39;3.30;;;2.50;;
71759;SDS011;59919;48.112;16.280;2023-04-28T04:39:10;3.35;;;2.72;;
71759;SDS011;59919;48.112;16.280;2023-04-28T04:41:44;4.47;;;3.20;;
71759;SDS011;59919;48.112;16.280;2023-04-28T04:44:15;2.92;;;2.50;;
71759;SDS011;59919;48.112;16.280;2023-04-28T04:46:49;4.47;;;3.30;;
71759;SDS011;59919;48.112;16.280;2023-04-28T04:49:20;3.25;;;2.58;;
71759;SDS011;59919;48.112;16.280;2023-04-28T04:51:51;3.63;;;2.90;;
71759;SDS011;59919;48.112;16.280;2023-04-28T04:54:22;3.60;;;3.30;;
71759;SDS011;59919;48.112;16.280;2023-04-28T04:56:56;3.75;;;2.88;;
71759;SDS011;59919;48.112;16.280;2023-04-28T04:59:27;4.18;;;3.33;;
71759;SDS011;59919;48.112;16.280;2023-04-28T05:02:00;4.75;;;3.35;;
71759;SDS011;59919;48.112;16.280;2023-04-28T05:04:32;5.40;;;2.95;;
71759;SDS011;59919;48.112;16.280;2023-04-28T05:07:03;3.33;;;2.17;;
71759;SDS011;59919;48.112;16.280;2023-04-28T05:09:34;3.05;;;1.90;;
71759;SDS011;59919;48.112;16.280;2023-04-28T05:12:06;3.70;;;2.50;;
71759;SDS011;59919;48.112;16.280;2023-04-28T05:14:37;4.22;;;2.38;;
71759;SDS011;59919;48.112;16.280;2023-04-28T05:17:11;3.63;;;2.28;;
71759;SDS011;59919;48.112;16.280;2023-04-28T05:19:42;3.10;;;2.10;;
71759;SDS011;59919;48.112;16.280;2023-04-28T05:22:15;3.80;;;2.65;;
71759;SDS011;59919;48.112;16.280;2023-04-28T05:24:46;3.13;;;2.33;;
71759;SDS011;59919;48.112;16.280;2023-04-28T05:27:18;3.33;;;2.40;;
71759;SDS011;59919;48.112;16.280;2023-04-28T05:29:57;3.70;;;2.35;;
71759;SDS011;59919;48.112;16.280;2023-04-28T05:32:32;5.25;;;2.65;;
71759;SDS011;59919;48.112;16.280;2023-04-28T05:35:05;5.10;;;2.70;;
71759;SDS011;59919;48.112;16.280;2023-04-28T05:37:39;3.30;;;2.42;;
71759;SDS011;59919;48.112;16.280;2023-04-28T05:40:14;4.70;;;3.50;;
71759;SDS011;59919;48.112;16.280;2023-04-28T05:42:45;2.72;;;2.33;;
71759;SDS011;59919;48.112;16.280;2023-04-28T05:45:18;5.18;;;3.40;;
71759;SDS011;59919;48.112;16.280;2023-04-28T05:47:50;3.83;;;2.40;;
71759;SDS011;59919;48.112;16.280;2023-04-28T05:50:24;2.60;;;2.40;;
71759;SDS011;59919;48.112;16.280;2023-04-28T05:52:58;3.72;;;2.45;;
71759;SDS011;59919;48.112;16.280;2023-04-28T05:55:31;3.55;;;2.28;;
71759;SDS011;59919;48.112;16.280;2023-04-28T05:58:03;2.97;;;2.28;;
71759;SDS011;59919;48.112;16.280;2023-04-28T06:00:37;3.50;;;2.33;;
71759;SDS011;59919;48.112;16.280;2023-04-28T06:03:13;3.58;;;2.70;;
71759;SDS011;59919;48.112;16.280;2023-04-28T06:05:48;4.35;;;2.50;;
71759;SDS011;59919;48.112;16.280;2023-04-28T06:08:19;2.53;;;2.33;;
71759;SDS011;59919;48.112;16.280;2023-04-28T06:10:53;4.25;;;2.70;;
71759;SDS011;59919;48.112;16.280;2023-04-28T06:13:26;3.53;;;2.58;;
71759;SDS011;59919;48.112;16.280;2023-04-28T06:15:58;3.20;;;2.72;;
71759;SDS011;59919;48.112;16.280;2023-04-28T06:18:35;4.55;;;2.53;;
71759;SDS011;59919;48.112;16.280;2023-04-28T06:21:06;3.20;;;2.90;;
71759;SDS011;59919;48.112;16.280;2023-04-28T06:23:37;3.33;;;2.60;;
71759;SDS011;59919;48.112;16.280;2023-04-28T06:26:10;3.75;;;2.67;;
71759;SDS011;59919;48.112;16.280;2023-04-28T06:28:41;3.67;;;2.80;;
71759;SDS011;59919;48.112;16.280;2023-04-28T06:31:12;2.83;;;2.35;;
71759;SDS011;59919;48.112;16.280;2023-04-28T06:33:46;4.38;;;2.58;;
71759;SDS011;59919;48.112;16.280;2023-04-28T06:36:17;3.15;;;2.30;;
71759;SDS011;59919;48.112;16.280;2023-04-28T06:38:53;6.05;;;2.60;;
71759;SDS011;59919;48.112;16.280;2023-04-28T06:41:24;4.78;;;3.00;;
71759;SDS011;59919;48.112;16.280;2023-04-28T06:43:58;3.40;;;2.90;;
71759;SDS011;59919;48.112;16.280;2023-04-28T06:46:38;2.97;;;2.58;;
71759;SDS011;59919;48.112;16.280;2023-04-28T06:49:13;3.85;;;2.70;;
71759;SDS011;59919;48.112;16.280;2023-04-28T06:51:47;3.03;;;2.47;;
71759;SDS011;59919;48.112;16.280;2023-04-28T06:54:26;3.22;;;2.80;;
71759;SDS011;59919;48.112;16.280;2023-04-28T06:56:58;2.88;;;2.58;;
71759;SDS011;59919;48.112;16.280;2023-04-28T06:59:31;2.67;;;2.45;;
71759;SDS011;59919;48.112;16.280;2023-04-28T07:02:02;3.95;;;2.75;;
71759;SDS011;59919;48.112;16.280;2023-04-28T07:04:36;3.00;;;2.55;;
71759;SDS011;59919;48.112;16.280;2023-04-28T07:07:07;3.00;;;2.70;;
71759;SDS011;59919;48.112;16.280;2023-04-28T07:09:39;5.75;;;2.97;;
71759;SDS011;59919;48.112;16.280;2023-04-28T07:12:13;3.10;;;2.30;;
71759;SDS011;59919;48.112;16.280;2023-04-28T07:14:44;3.70;;;2.53;;
71759;SDS011;59919;48.112;16.280;2023-04-28T07:17:16;3.00;;;2.70;;
71759;SDS011;59919;48.112;16.280;2023-04-28T07:19:50;6.30;;;3.00;;
71759;SDS011;59919;48.112;16.280;2023-04-28T07:22:23;3.53;;;2.85;;
71759;SDS011;59919;48.112;16.280;2023-04-28T07:24:57;4.20;;;2.55;;
71759;SDS011;59919;48.112;16.280;2023-04-28T07:27:28;4.25;;;2.65;;
71759;SDS011;59919;48.112;16.280;2023-04-28T07:30:04;5.75;;;2.75;;
71759;SDS011;59919;48.112;16.280;2023-04-28T07:32:35;3.92;;;2.85;;
71759;SDS011;59919;48.112;16.280;2023-04-28T07:35:09;4.00;;;2.60;;
71759;SDS011;59919;48.112;16.280;2023-04-28T07:37:43;4.18;;;2.33;;
71759;SDS011;59919;48.112;16.280;2023-04-28T07:40:20;2.80;;;2.20;;
71759;SDS011;59919;48.112;16.280;2023-04-28T07:42:53;3.45;;;2.92;;
71759;SDS011;59919;48.112;16.280;2023-04-28T07:45:28;4.70;;;2.10;;
71759;SDS011;59919;48.112;16.280;2023-04-28T07:48:02;2.95;;;2.00;;
71759;SDS011;59919;48.112;16.280;2023-04-28T07:50:33;2.72;;;2.22;;
71759;SDS011;59919;48.112;16.280;2023-04-28T07:53:09;3.17;;;2.42;;
71759;SDS011;59919;48.112;16.280;2023-04-28T07:55:43;3.63;;;2.30;;
71759;SDS011;59919;48.112;16.280;2023-04-28T07:58:18;4.53;;;2.20;;
71759;SDS011;59919;48.112;16.280;2023-04-28T08:00:49;2.67;;;2.42;;
71759;SDS011;59919;48.112;16.280;2023-04-28T08:03:20;3.13;;;2.05;;
71759;SDS011;59919;48.112;16.280;2023-04-28T08:05:51;3.50;;;2.47;;
71759;SDS011;59919;48.112;16.280;2023-04-28T08:08:25;3.20;;;2.20;;
71759;SDS011;59919;48.112;16.280;2023-04-28T08:10:56;4.40;;;2.28;;
71759;SDS011;59919;48.112;16.280;2023-04-28T08:13:29;4.55;;;1.88;;
71759;SDS011;59919;48.112;16.280;2023-04-28T08:16:05;7.63;;;2.15;;
71759;SDS011;59919;48.112;16.280;2023-04-28T08:18:36;283.00;;;99.82;;
71759;SDS011;59919;48.112;16.280;2023-04-28T08:21:10;106.20;;;34.20;;
71759;SDS011;59919;48.112;16.280;2023-04-28T08:23:45;76.03;;;25.77;;
71759;SDS011;59919;48.112;16.280;2023-04-28T08:26:18;70.18;;;21.60;;
71759;SDS011;59919;48.112;16.280;2023-04-28T08:28:54;98.20;;;31.92;;
71759;SDS011;59919;48.112;16.280;2023-04-28T08:31:25;106.00;;;35.72;;
71759;SDS011;59919;48.112;16.280;2023-04-28T08:33:56;145.25;;;47.67;;
71759;SDS011;59919;48.112;16.280;2023-04-28T08:36:27;125.20;;;38.22;;
71759;SDS011;59919;48.112;16.280;2023-04-28T08:39:02;101.03;;;31.58;;
71759;SDS011;59919;48.112;16.280;2023-04-28T08:41:38;92.07;;;29.92;;
71759;SDS011;59919;48.112;16.280;2023-04-28T08:44:12;94.93;;;28.50;;
71759;SDS011;59919;48.112;16.280;2023-04-28T08:46:45;80.25;;;27.33;;
71759;SDS011;59919;48.112;16.280;2023-04-28T08:49:22;74.50;;;23.05;;
71759;SDS011;59919;48.112;16.280;2023-04-28T08:52:05;80.72;;;21.95;;
71759;SDS011;59919;48.112;16.280;2023-04-28T08:54:42;74.38;;;20.17;;
71759;SDS011;59919;48.112;16.280;2023-04-28T08:57:13;63.25;;;18.80;;
71759;SDS011;59919;48.112;16.280;2023-04-28T08:59:45;56.00;;;19.38;;
71759;SDS011;59919;48.112;16.280;2023-04-28T09:02:17;69.40;;;19.17;;
71759;SDS011;59919;48.112;16.280;2023-04-28T09:04:49;55.65;;;17.98;;
71759;SDS011;59919;48.112;16.280;2023-04-28T09:07:20;60.78;;;19.10;;
71759;SDS011;59919;48.112;16.280;2023-04-28T09:13:04;54.55;;;18.02;;
71759;SDS011;59919;48.112;16.280;2023-04-28T09:15:38;53.35;;;17.48;;
71759;SDS011;59919;48.112;16.280;2023-04-28T09:18:13;55.85;;;17.63;;
71759;SDS011;59919;48.112;16.280;2023-04-28T09:20:46;52.13;;;16.20;;
71759;SDS011;59919;48.112;16.280;2023-04-28T09:23:18;57.15;;;16.80;;
71759;SDS011;59919;48.112;16.280;2023-04-28T09:25:54;47.30;;;16.48;;
71759;SDS011;59919;48.112;16.280;2023-04-28T09:28:37;46.95;;;16.50;;
71759;SDS011;59919;48.112;16.280;2023-04-28T09:31:22;45.50;;;15.57;;
71759;SDS011;59919;48.112;16.280;2023-04-28T09:34:00;50.83;;;16.10;;
71759;SDS011;59919;48.112;16.280;2023-04-28T09:36:34;44.17;;;14.52;;
71759;SDS011;59919;48.112;16.280;2023-04-28T09:39:07;36.92;;;12.75;;
71759;SDS011;59919;48.112;16.280;2023-04-28T09:41:41;39.10;;;13.02;;
71759;SDS011;59919;48.112;16.280;2023-04-28T09:44:14;34.70;;;12.20;;
71759;SDS011;59919;48.112;16.280;2023-04-28T09:46:50;29.02;;;11.57;;
71759;SDS011;59919;48.112;16.280;2023-04-28T09:49:22;40.55;;;12.70;;
71759;SDS011;59919;48.112;16.280;2023-04-28T09:52:00;35.80;;;12.13;;
71759;SDS011;59919;48.112;16.280;2023-04-28T09:54:42;29.77;;;10.75;;
71759;SDS011;59919;48.112;16.280;2023-04-28T09:57:13;32.00;;;10.73;;
71759;SDS011;59919;48.112;16.280;2023-04-28T09:59:51;29.83;;;11.13;;
71759;SDS011;59919;48.112;16.280;2023-04-28T10:02:25;28.65;;;10.82;;
71759;SDS011;59919;48.112;16.280;2023-04-28T10:04:57;30.95;;;10.38;;
71759;SDS011;59919;48.112;16.280;2023-04-28T10:07:31;34.63;;;10.52;;
71759;SDS011;59919;48.112;16.280;2023-04-28T10:10:05;28.13;;;10.57;;
71759;SDS011;59919;48.112;16.280;2023-04-28T10:12:37;30.65;;;9.88;;
71759;SDS011;59919;48.112;16.280;2023-04-28T10:15:12;27.45;;;10.10;;
71759;SDS011;59919;48.112;16.280;2023-04-28T10:17:46;25.48;;;9.45;;
71759;SDS011;59919;48.112;16.280;2023-04-28T10:20:22;22.90;;;9.07;;
71759;SDS011;59919;48.112;16.280;2023-04-28T10:22:58;25.80;;;9.82;;
71759;SDS011;59919;48.112;16.280;2023-04-28T10:25:41;26.80;;;9.85;;
71759;SDS011;59919;48.112;16.280;2023-04-28T10:28:13;24.10;;;9.55;;
71759;SDS011;59919;48.112;16.280;2023-04-28T10:31:07;26.50;;;9.32;;
71759;SDS011;59919;48.112;16.280;2023-04-28T10:33:43;28.17;;;9.95;;
71759;SDS011;59919;48.112;16.280;2023-04-28T10:39:24;22.23;;;8.98;;
71759;SDS011;59919;48.112;16.280;2023-04-28T10:41:58;21.17;;;8.40;;
71759;SDS011;59919;48.112;16.280;2023-04-28T10:47:08;24.13;;;8.60;;
71759;SDS011;59919;48.112;16.280;2023-04-28T11:00:49;18.60;;;7.72;;
71759;SDS011;59919;48.112;16.280;2023-04-28T11:09:02;18.77;;;7.82;;
71759;SDS011;59919;48.112;16.280;2023-04-28T11:14:40;16.48;;;7.18;;
71759;SDS011;59919;48.112;16.280;2023-04-28T11:17:14;17.02;;;7.45;;
71759;SDS011;59919;48.112;16.280;2023-04-28T11:19:48;15.75;;;6.93;;
71759;SDS011;59919;48.112;16.280;2023-04-28T11:22:21;18.38;;;7.80;;
71759;SDS011;59919;48.112;16.280;2023-04-28T11:24:57;17.70;;;7.45;;
71759;SDS011;59919;48.112;16.280;2023-04-28T11:27:33;16.30;;;6.95;;
71759;SDS011;59919;48.112;16.280;2023-04-28T11:30:29;14.40;;;6.68;;
71759;SDS011;59919;48.112;16.280;2023-04-28T11:33:03;15.45;;;6.55;;
71759;SDS011;59919;48.112;16.280;2023-04-28T11:35:43;13.93;;;6.53;;
71759;SDS011;59919;48.112;16.280;2023-04-28T11:38:16;16.52;;;6.47;;
71759;SDS011;59919;48.112;16.280;2023-04-28T11:40:59;14.90;;;6.43;;
71759;SDS011;59919;48.112;16.280;2023-04-28T11:43:37;18.77;;;6.22;;
71759;SDS011;59919;48.112;16.280;2023-04-28T11:46:15;17.95;;;6.13;;
71759;SDS011;59919;48.112;16.280;2023-04-28T11:48:47;15.90;;;6.43;;
71759;SDS011;59919;48.112;16.280;2023-04-28T11:51:31;16.20;;;6.07;;
71759;SDS011;59919;48.112;16.280;2023-04-28T11:54:12;12.18;;;6.15;;
71759;SDS011;59919;48.112;16.280;2023-04-28T11:56:44;16.65;;;6.35;;
71759;SDS011;59919;48.112;16.280;2023-04-28T11:59:15;16.77;;;5.90;;
71759;SDS011;59919;48.112;16.280;2023-04-28T12:01:50;14.65;;;5.93;;
71759;SDS011;59919;48.112;16.280;2023-04-28T12:04:40;14.27;;;6.15;;
71759;SDS011;59919;48.112;16.280;2023-04-28T12:07:17;12.50;;;5.68;;
71759;SDS011;59919;48.112;16.280;2023-04-28T12:10:09;15.07;;;6.35;;
71759;SDS011;59919;48.112;16.280;2023-04-28T12:12:46;13.52;;;5.72;;
71759;SDS011;59919;48.112;16.280;2023-04-28T12:15:20;15.48;;;6.05;;
71759;SDS011;59919;48.112;16.280;2023-04-28T12:17:54;14.23;;;5.72;;
71759;SDS011;59919;48.112;16.280;2023-04-28T12:20:41;11.90;;;6.03;;
71759;SDS011;59919;48.112;16.280;2023-04-28T12:23:13;12.30;;;5.85;;
71759;SDS011;59919;48.112;16.280;2023-04-28T12:25:44;12.88;;;6.07;;
71759;SDS011;59919;48.112;16.280;2023-04-28T12:28:16;13.15;;;5.70;;
71759;SDS011;59919;48.112;16.280;2023-04-28T12:30:47;12.77;;;4.90;;
71759;SDS011;59919;48.112;16.280;2023-04-28T12:33:21;17.70;;;5.28;;
71759;SDS011;59919;48.112;16.280;2023-04-28T12:35:59;16.00;;;5.20;;
71759;SDS011;59919;48.112;16.280;2023-04-28T12:38:33;12.97;;;5.57;;
71759;SDS011;59919;48.112;16.280;2023-04-28T12:41:07;15.32;;;6.45;;
71759;SDS011;59919;48.112;16.280;2023-04-28T12:43:38;13.45;;;5.75;;
71759;SDS011;59919;48.112;16.280;2023-04-28T12:46:10;16.73;;;6.10;;
71759;SDS011;59919;48.112;16.280;2023-04-28T12:48:45;12.13;;;5.70;;
71759;SDS011;59919;48.112;16.280;2023-04-28T12:51:22;16.35;;;6.53;;
71759;SDS011;59919;48.112;16.280;2023-04-28T12:53:59;11.75;;;5.30;;
71759;SDS011;59919;48.112;16.280;2023-04-28T12:56:33;12.15;;;5.50;;
71759;SDS011;59919;48.112;16.280;2023-04-28T12:59:04;13.90;;;5.85;;
71759;SDS011;59919;48.112;16.280;2023-04-28T13:01:37;14.10;;;5.65;;
71759;SDS011;59919;48.112;16.280;2023-04-28T13:04:08;13.15;;;5.70;;
71759;SDS011;59919;48.112;16.280;2023-04-28T13:06:42;14.20;;;5.68;;
71759;SDS011;59919;48.112;16.280;2023-04-28T13:09:13;10.25;;;5.05;;
71759;SDS011;59919;48.112;16.280;2023-04-28T13:11:45;11.43;;;5.03;;
71759;SDS011;59919;48.112;16.280;2023-04-28T13:14:26;9.88;;;6.00;;
71759;SDS011;59919;48.112;16.280;2023-04-28T13:16:58;9.15;;;4.95;;
71759;SDS011;59919;48.112;16.280;2023-04-28T13:19:29;10.52;;;4.82;;
71759;SDS011;59919;48.112;16.280;2023-04-28T13:22:00;11.20;;;5.95;;
71759;SDS011;59919;48.112;16.280;2023-04-28T13:24:37;11.60;;;5.22;;
71759;SDS011;59919;48.112;16.280;2023-04-28T13:27:14;9.88;;;5.07;;
71759;SDS011;59919;48.112;16.280;2023-04-28T13:29:46;9.73;;;4.18;;
71759;SDS011;59919;48.112;16.280;2023-04-28T13:32:19;17.48;;;4.38;;
71759;SDS011;59919;48.112;16.280;2023-04-28T13:34:50;14.82;;;4.20;;
71759;SDS011;59919;48.112;16.280;2023-04-28T13:37:30;16.38;;;4.05;;
71759;SDS011;59919;48.112;16.280;2023-04-28T13:40:10;17.42;;;4.95;;
71759;SDS011;59919;48.112;16.280;2023-04-28T13:42:44;13.20;;;4.78;;
71759;SDS011;59919;48.112;16.280;2023-04-28T13:45:18;15.55;;;5.47;;
71759;SDS011;59919;48.112;16.280;2023-04-28T13:47:55;11.43;;;4.95;;
71759;SDS011;59919;48.112;16.280;2023-04-28T13:50:29;10.70;;;4.50;;
71759;SDS011;59919;48.112;16.280;2023-04-28T13:53:00;14.93;;;5.97;;
71759;SDS011;59919;48.112;16.280;2023-04-28T13:55:34;11.75;;;4.57;;
71759;SDS011;59919;48.112;16.280;2023-04-28T13:58:08;11.77;;;4.10;;
71759;SDS011;59919;48.112;16.280;2023-04-28T14:00:41;12.95;;;4.82;;
71759;SDS011;59919;48.112;16.280;2023-04-28T14:03:13;13.18;;;5.53;;
71759;SDS011;59919;48.112;16.280;2023-04-28T14:05:49;10.55;;;4.43;;
71759;SDS011;59919;48.112;16.280;2023-04-28T14:08:28;8.32;;;4.15;;
71759;SDS011;59919;48.112;16.280;2023-04-28T14:11:02;11.32;;;3.90;;
71759;SDS011;59919;48.112;16.280;2023-04-28T14:13:34;9.30;;;3.97;;
71759;SDS011;59919;48.112;16.280;2023-04-28T14:16:06;10.43;;;4.85;;
71759;SDS011;59919;48.112;16.280;2023-04-28T14:18:43;12.50;;;4.32;;
71759;SDS011;59919;48.112;16.280;2023-04-28T14:21:14;13.85;;;4.65;;
71759;SDS011;59919;48.112;16.280;2023-04-28T14:23:48;11.30;;;3.92;;
71759;SDS011;59919;48.112;16.280;2023-04-28T14:26:19;6.13;;;4.05;;
71759;SDS011;59919;48.112;16.280;2023-04-28T14:28:53;11.90;;;3.72;;
71759;SDS011;59919;48.112;16.280;2023-04-28T14:31:24;16.80;;;4.18;;
71759;SDS011;59919;48.112;16.280;2023-04-28T14:33:57;13.63;;;3.55;;
71759;SDS011;59919;48.112;16.280;2023-04-28T14:36:32;11.82;;;3.63;;
71759;SDS011;59919;48.112;16.280;2023-04-28T14:39:03;12.07;;;3.65;;
71759;SDS011;59919;48.112;16.280;2023-04-28T14:41:37;11.98;;;3.30;;
71759;SDS011;59919;48.112;16.280;2023-04-28T14:44:08;6.78;;;3.42;;
71759;SDS011;59919;48.112;16.280;2023-04-28T14:46:40;9.82;;;3.13;;
71759;SDS011;59919;48.112;16.280;2023-04-28T14:49:11;8.10;;;3.22;;
71759;SDS011;59919;48.112;16.280;2023-04-28T14:51:42;9.00;;;3.53;;
71759;SDS011;59919;48.112;16.280;2023-04-28T14:54:15;8.77;;;3.30;;
71759;SDS011;59919;48.112;16.280;2023-04-28T14:56:55;8.25;;;3.03;;
71759;SDS011;59919;48.112;16.280;2023-04-28T14:59:30;9.07;;;3.40;;
71759;SDS011;59919;48.112;16.280;2023-04-28T15:02:05;10.68;;;2.92;;
71759;SDS011;59919;48.112;16.280;2023-04-28T15:04:39;5.93;;;2.97;;
71759;SDS011;59919;48.112;16.280;2023-04-28T15:07:15;5.95;;;3.08;;
71759;SDS011;59919;48.112;16.280;2023-04-28T15:09:46;9.10;;;2.85;;
71759;SDS011;59919;48.112;16.280;2023-04-28T15:12:19;6.25;;;2.90;;
71759;SDS011;59919;48.112;16.280;2023-04-28T15:14:53;8.35;;;2.90;;
71759;SDS011;59919;48.112;16.280;2023-04-28T15:17:26;6.55;;;3.10;;
71759;SDS011;59919;48.112;16.280;2023-04-28T15:19:57;5.88;;;2.95;;
71759;SDS011;59919;48.112;16.280;2023-04-28T15:22:29;9.10;;;2.92;;
71759;SDS011;59919;48.112;16.280;2023-04-28T15:25:00;5.85;;;2.78;;
71759;SDS011;59919;48.112;16.280;2023-04-28T15:27:37;7.45;;;2.80;;
71759;SDS011;59919;48.112;16.280;2023-04-28T15:30:08;9.63;;;3.22;;
71759;SDS011;59919;48.112;16.280;2023-04-28T15:32:39;7.72;;;3.20;;
71759;SDS011;59919;48.112;16.280;2023-04-28T15:35:13;5.93;;;2.63;;